sensor_id;sensor_type;location;lat;lon;timestamp;P1;durP1;ratioP1;P2;durP2;ratioP2
17347;SDS011;8791;50.876;4.342;2022-12-18T00:00:43;67.33;;;27.17;;
17347;SDS011;8791;50.876;4.342;2022-12-18T00:03:11;67.63;;;26.60;;
17347;SDS011;8791;50.876;4.342;2022-12-18T00:05:45;64.77;;;24.33;;
17347;SDS011;8791;50.876;4.342;2022-12-18T00:08:12;64.40;;;25.17;;
17347;SDS011;8791;50.876;4.342;2022-12-18T00:10:39;62.97;;;24.30;;
17347;SDS011;8791;50.876;4.342;2022-12-18T00:13:06;65.37;;;25.43;;
17347;SDS011;8791;50.876;4.342;2022-12-18T00:15:34;58.30;;;24.03;;
17347;SDS011;8791;50.876;4.342;2022-12-18T00:18:01;65.37;;;24.93;;
17347;SDS011;8791;50.876;4.342;2022-12-18T00:20:28;71.47;;;26.63;;
17347;SDS011;8791;50.876;4.342;2022-12-18T00:22:55;61.63;;;25.13;;
17347;SDS011;8791;50.876;4.342;2022-12-18T00:25:22;62.90;;;24.83;;
17347;SDS011;8791;50.876;4.342;2022-12-18T00:27:49;64.00;;;23.53;;
17347;SDS011;8791;50.876;4.342;2022-12-18T00:30:16;64.53;;;24.73;;
17347;SDS011;8791;50.876;4.342;2022-12-18T00:32:44;58.77;;;23.70;;
17347;SDS011;8791;50.876;4.342;2022-12-18T00:35:11;61.10;;;22.93;;
17347;SDS011;8791;50.876;4.342;2022-12-18T00:37:38;60.90;;;24.47;;
17347;SDS011;8791;50.876;4.342;2022-12-18T00:40:05;59.60;;;24.13;;
17347;SDS011;8791;50.876;4.342;2022-12-18T00:42:33;58.93;;;23.47;;
17347;SDS011;8791;50.876;4.342;2022-12-18T00:45:17;65.57;;;24.90;;
17347;SDS011;8791;50.876;4.342;2022-12-18T00:47:45;58.20;;;23.13;;
17347;SDS011;8791;50.876;4.342;2022-12-18T00:50:12;61.30;;;23.77;;
17347;SDS011;8791;50.876;4.342;2022-12-18T00:52:38;55.37;;;23.37;;
17347;SDS011;8791;50.876;4.342;2022-12-18T00:55:06;54.57;;;23.00;;
17347;SDS011;8791;50.876;4.342;2022-12-18T00:57:33;63.73;;;24.90;;
17347;SDS011;8791;50.876;4.342;2022-12-18T01:00:00;55.07;;;23.13;;
17347;SDS011;8791;50.876;4.342;2022-12-18T01:02:26;58.20;;;22.33;;
17347;SDS011;8791;50.876;4.342;2022-12-18T01:04:54;50.67;;;21.43;;
17347;SDS011;8791;50.876;4.342;2022-12-18T01:07:21;60.27;;;23.23;;
17347;SDS011;8791;50.876;4.342;2022-12-18T01:09:48;58.10;;;23.60;;
17347;SDS011;8791;50.876;4.342;2022-12-18T01:12:15;57.43;;;22.27;;
17347;SDS011;8791;50.876;4.342;2022-12-18T01:14:42;52.70;;;21.70;;
17347;SDS011;8791;50.876;4.342;2022-12-18T01:17:09;55.27;;;21.77;;
17347;SDS011;8791;50.876;4.342;2022-12-18T01:19:35;51.43;;;21.93;;
17347;SDS011;8791;50.876;4.342;2022-12-18T01:22:04;49.03;;;21.47;;
17347;SDS011;8791;50.876;4.342;2022-12-18T01:24:30;55.57;;;21.80;;
17347;SDS011;8791;50.876;4.342;2022-12-18T01:26:57;51.67;;;21.00;;
17347;SDS011;8791;50.876;4.342;2022-12-18T01:29:24;55.87;;;21.33;;
17347;SDS011;8791;50.876;4.342;2022-12-18T01:31:54;54.87;;;20.23;;
17347;SDS011;8791;50.876;4.342;2022-12-18T01:34:21;51.13;;;20.60;;
17347;SDS011;8791;50.876;4.342;2022-12-18T01:36:48;49.97;;;20.90;;
17347;SDS011;8791;50.876;4.342;2022-12-18T01:39:18;56.57;;;23.23;;
17347;SDS011;8791;50.876;4.342;2022-12-18T01:41:45;50.70;;;19.73;;
17347;SDS011;8791;50.876;4.342;2022-12-18T01:44:50;45.63;;;20.03;;
17347;SDS011;8791;50.876;4.342;2022-12-18T01:47:22;43.97;;;19.67;;
17347;SDS011;8791;50.876;4.342;2022-12-18T01:49:52;42.83;;;18.67;;
17347;SDS011;8791;50.876;4.342;2022-12-18T01:52:20;45.20;;;18.77;;
17347;SDS011;8791;50.876;4.342;2022-12-18T01:54:49;42.87;;;18.20;;
17347;SDS011;8791;50.876;4.342;2022-12-18T01:57:17;44.30;;;18.83;;
17347;SDS011;8791;50.876;4.342;2022-12-18T01:59:45;48.60;;;18.87;;
17347;SDS011;8791;50.876;4.342;2022-12-18T02:02:15;47.80;;;19.37;;
17347;SDS011;8791;50.876;4.342;2022-12-18T02:04:43;45.00;;;18.20;;
17347;SDS011;8791;50.876;4.342;2022-12-18T02:07:11;42.07;;;18.17;;
17347;SDS011;8791;50.876;4.342;2022-12-18T02:09:46;38.10;;;17.67;;
17347;SDS011;8791;50.876;4.342;2022-12-18T02:12:20;41.97;;;18.03;;
17347;SDS011;8791;50.876;4.342;2022-12-18T02:14:53;44.47;;;18.40;;
17347;SDS011;8791;50.876;4.342;2022-12-18T02:17:27;44.27;;;19.23;;
17347;SDS011;8791;50.876;4.342;2022-12-18T02:20:05;45.70;;;18.67;;
17347;SDS011;8791;50.876;4.342;2022-12-18T02:22:42;39.73;;;18.00;;
17347;SDS011;8791;50.876;4.342;2022-12-18T02:25:24;41.50;;;18.77;;
17347;SDS011;8791;50.876;4.342;2022-12-18T02:28:03;42.73;;;18.13;;
17347;SDS011;8791;50.876;4.342;2022-12-18T02:30:32;50.37;;;18.07;;
17347;SDS011;8791;50.876;4.342;2022-12-18T02:33:01;41.53;;;18.13;;
17347;SDS011;8791;50.876;4.342;2022-12-18T02:35:32;45.13;;;19.77;;
17347;SDS011;8791;50.876;4.342;2022-12-18T02:38:00;38.87;;;16.77;;
17347;SDS011;8791;50.876;4.342;2022-12-18T02:40:29;44.67;;;18.47;;
17347;SDS011;8791;50.876;4.342;2022-12-18T02:43:03;43.17;;;17.33;;
17347;SDS011;8791;50.876;4.342;2022-12-18T02:45:33;40.13;;;17.03;;
17347;SDS011;8791;50.876;4.342;2022-12-18T02:48:00;43.73;;;16.70;;
17347;SDS011;8791;50.876;4.342;2022-12-18T02:50:30;43.77;;;18.03;;
17347;SDS011;8791;50.876;4.342;2022-12-18T02:53:04;44.87;;;17.63;;
17347;SDS011;8791;50.876;4.342;2022-12-18T02:55:43;43.17;;;18.23;;
17347;SDS011;8791;50.876;4.342;2022-12-18T02:58:20;43.27;;;18.30;;
17347;SDS011;8791;50.876;4.342;2022-12-18T03:00:57;38.70;;;17.30;;
17347;SDS011;8791;50.876;4.342;2022-12-18T03:03:29;44.03;;;17.40;;
17347;SDS011;8791;50.876;4.342;2022-12-18T03:06:00;44.30;;;17.97;;
17347;SDS011;8791;50.876;4.342;2022-12-18T03:08:31;38.37;;;16.70;;
17347;SDS011;8791;50.876;4.342;2022-12-18T03:11:03;36.33;;;16.47;;
17347;SDS011;8791;50.876;4.342;2022-12-18T03:13:33;43.13;;;16.30;;
17347;SDS011;8791;50.876;4.342;2022-12-18T03:16:04;36.57;;;16.97;;
17347;SDS011;8791;50.876;4.342;2022-12-18T03:18:34;40.63;;;16.67;;
17347;SDS011;8791;50.876;4.342;2022-12-18T03:21:04;34.20;;;15.87;;
17347;SDS011;8791;50.876;4.342;2022-12-18T03:23:33;41.00;;;16.43;;
17347;SDS011;8791;50.876;4.342;2022-12-18T03:26:05;31.40;;;15.70;;
17347;SDS011;8791;50.876;4.342;2022-12-18T03:28:36;39.50;;;17.13;;
17347;SDS011;8791;50.876;4.342;2022-12-18T03:31:08;33.10;;;15.47;;
17347;SDS011;8791;50.876;4.342;2022-12-18T03:33:39;39.40;;;16.40;;
17347;SDS011;8791;50.876;4.342;2022-12-18T03:36:10;41.30;;;16.57;;
17347;SDS011;8791;50.876;4.342;2022-12-18T03:38:37;40.70;;;16.63;;
17347;SDS011;8791;50.876;4.342;2022-12-18T03:41:06;32.00;;;15.43;;
17347;SDS011;8791;50.876;4.342;2022-12-18T03:43:41;36.77;;;16.37;;
17347;SDS011;8791;50.876;4.342;2022-12-18T03:46:15;40.27;;;17.07;;
17347;SDS011;8791;50.876;4.342;2022-12-18T03:48:49;38.40;;;17.20;;
17347;SDS011;8791;50.876;4.342;2022-12-18T03:51:22;35.67;;;16.77;;
17347;SDS011;8791;50.876;4.342;2022-12-18T03:53:53;40.97;;;17.27;;
17347;SDS011;8791;50.876;4.342;2022-12-18T03:56:25;34.20;;;16.67;;
17347;SDS011;8791;50.876;4.342;2022-12-18T03:58:56;35.40;;;15.40;;
17347;SDS011;8791;50.876;4.342;2022-12-18T04:01:25;38.43;;;15.17;;
17347;SDS011;8791;50.876;4.342;2022-12-18T04:03:57;34.27;;;14.80;;
17347;SDS011;8791;50.876;4.342;2022-12-18T04:06:26;37.17;;;15.50;;
17347;SDS011;8791;50.876;4.342;2022-12-18T04:08:54;37.43;;;14.83;;
17347;SDS011;8791;50.876;4.342;2022-12-18T04:11:23;34.73;;;15.63;;
17347;SDS011;8791;50.876;4.342;2022-12-18T04:13:50;31.27;;;14.00;;
17347;SDS011;8791;50.876;4.342;2022-12-18T04:16:22;31.50;;;14.90;;
17347;SDS011;8791;50.876;4.342;2022-12-18T04:18:49;29.37;;;13.77;;
17347;SDS011;8791;50.876;4.342;2022-12-18T04:21:16;30.43;;;13.63;;
17347;SDS011;8791;50.876;4.342;2022-12-18T04:23:43;27.57;;;13.80;;
17347;SDS011;8791;50.876;4.342;2022-12-18T04:26:09;35.00;;;14.20;;
17347;SDS011;8791;50.876;4.342;2022-12-18T04:28:36;31.53;;;14.57;;
17347;SDS011;8791;50.876;4.342;2022-12-18T04:31:03;29.03;;;13.47;;
17347;SDS011;8791;50.876;4.342;2022-12-18T04:33:31;28.47;;;13.80;;
17347;SDS011;8791;50.876;4.342;2022-12-18T04:35:58;29.40;;;14.17;;
17347;SDS011;8791;50.876;4.342;2022-12-18T04:38:25;32.30;;;13.47;;
17347;SDS011;8791;50.876;4.342;2022-12-18T04:40:52;30.23;;;13.47;;
17347;SDS011;8791;50.876;4.342;2022-12-18T04:43:19;28.60;;;13.33;;
17347;SDS011;8791;50.876;4.342;2022-12-18T04:45:46;24.27;;;12.30;;
17347;SDS011;8791;50.876;4.342;2022-12-18T04:48:12;27.17;;;12.47;;
17347;SDS011;8791;50.876;4.342;2022-12-18T04:50:41;33.30;;;13.40;;
17347;SDS011;8791;50.876;4.342;2022-12-18T04:53:08;26.87;;;12.87;;
17347;SDS011;8791;50.876;4.342;2022-12-18T04:55:34;24.83;;;11.73;;
17347;SDS011;8791;50.876;4.342;2022-12-18T04:58:01;35.23;;;13.97;;
17347;SDS011;8791;50.876;4.342;2022-12-18T05:00:28;25.80;;;12.07;;
17347;SDS011;8791;50.876;4.342;2022-12-18T05:02:55;25.03;;;12.70;;
17347;SDS011;8791;50.876;4.342;2022-12-18T05:05:21;26.10;;;11.57;;
17347;SDS011;8791;50.876;4.342;2022-12-18T05:07:49;30.17;;;12.73;;
17347;SDS011;8791;50.876;4.342;2022-12-18T05:10:16;23.97;;;12.30;;
17347;SDS011;8791;50.876;4.342;2022-12-18T05:12:43;29.10;;;11.67;;
17347;SDS011;8791;50.876;4.342;2022-12-18T05:15:24;26.00;;;12.73;;
17347;SDS011;8791;50.876;4.342;2022-12-18T05:17:52;25.63;;;12.03;;
17347;SDS011;8791;50.876;4.342;2022-12-18T05:20:19;25.90;;;11.53;;
17347;SDS011;8791;50.876;4.342;2022-12-18T05:22:46;24.10;;;11.00;;
17347;SDS011;8791;50.876;4.342;2022-12-18T05:25:14;23.57;;;11.33;;
17347;SDS011;8791;50.876;4.342;2022-12-18T05:27:41;34.97;;;15.33;;
17347;SDS011;8791;50.876;4.342;2022-12-18T05:30:08;25.60;;;11.67;;
17347;SDS011;8791;50.876;4.342;2022-12-18T05:32:35;22.27;;;11.07;;
17347;SDS011;8791;50.876;4.342;2022-12-18T05:35:03;23.60;;;11.23;;
17347;SDS011;8791;50.876;4.342;2022-12-18T05:37:31;26.73;;;11.47;;
17347;SDS011;8791;50.876;4.342;2022-12-18T05:39:58;24.67;;;11.30;;
17347;SDS011;8791;50.876;4.342;2022-12-18T05:42:26;28.37;;;11.90;;
17347;SDS011;8791;50.876;4.342;2022-12-18T05:44:53;25.03;;;12.03;;
17347;SDS011;8791;50.876;4.342;2022-12-18T05:47:20;24.93;;;11.23;;
17347;SDS011;8791;50.876;4.342;2022-12-18T05:49:47;22.90;;;11.33;;
17347;SDS011;8791;50.876;4.342;2022-12-18T05:52:13;28.53;;;12.10;;
17347;SDS011;8791;50.876;4.342;2022-12-18T05:54:40;23.60;;;11.20;;
17347;SDS011;8791;50.876;4.342;2022-12-18T05:57:07;21.63;;;10.90;;
17347;SDS011;8791;50.876;4.342;2022-12-18T05:59:35;24.93;;;11.23;;
17347;SDS011;8791;50.876;4.342;2022-12-18T06:02:02;19.73;;;11.00;;
17347;SDS011;8791;50.876;4.342;2022-12-18T06:04:29;28.43;;;11.47;;
17347;SDS011;8791;50.876;4.342;2022-12-18T06:06:56;24.10;;;11.40;;
17347;SDS011;8791;50.876;4.342;2022-12-18T06:09:22;24.13;;;11.43;;
17347;SDS011;8791;50.876;4.342;2022-12-18T06:11:50;29.83;;;12.33;;
17347;SDS011;8791;50.876;4.342;2022-12-18T06:14:18;29.87;;;12.23;;
17347;SDS011;8791;50.876;4.342;2022-12-18T06:16:46;26.07;;;11.70;;
17347;SDS011;8791;50.876;4.342;2022-12-18T06:19:14;26.00;;;11.40;;
17347;SDS011;8791;50.876;4.342;2022-12-18T06:21:42;25.87;;;12.13;;
17347;SDS011;8791;50.876;4.342;2022-12-18T06:24:09;29.10;;;11.80;;
17347;SDS011;8791;50.876;4.342;2022-12-18T06:26:36;26.77;;;12.17;;
17347;SDS011;8791;50.876;4.342;2022-12-18T06:29:04;34.23;;;12.57;;
17347;SDS011;8791;50.876;4.342;2022-12-18T06:31:31;25.83;;;12.57;;
17347;SDS011;8791;50.876;4.342;2022-12-18T06:33:59;24.23;;;11.37;;
17347;SDS011;8791;50.876;4.342;2022-12-18T06:36:28;29.30;;;12.80;;
17347;SDS011;8791;50.876;4.342;2022-12-18T06:38:55;24.80;;;11.50;;
17347;SDS011;8791;50.876;4.342;2022-12-18T06:41:22;27.20;;;12.10;;
17347;SDS011;8791;50.876;4.342;2022-12-18T06:43:49;23.10;;;11.60;;
17347;SDS011;8791;50.876;4.342;2022-12-18T06:46:16;26.70;;;11.43;;
17347;SDS011;8791;50.876;4.342;2022-12-18T06:48:46;19.50;;;10.40;;
17347;SDS011;8791;50.876;4.342;2022-12-18T06:51:16;26.60;;;12.50;;
17347;SDS011;8791;50.876;4.342;2022-12-18T06:53:44;21.63;;;10.50;;
17347;SDS011;8791;50.876;4.342;2022-12-18T06:56:10;25.53;;;11.20;;
17347;SDS011;8791;50.876;4.342;2022-12-18T06:58:37;25.93;;;10.97;;
17347;SDS011;8791;50.876;4.342;2022-12-18T07:01:05;21.33;;;10.90;;
17347;SDS011;8791;50.876;4.342;2022-12-18T07:03:33;22.23;;;11.37;;
17347;SDS011;8791;50.876;4.342;2022-12-18T07:06:00;19.77;;;10.23;;
17347;SDS011;8791;50.876;4.342;2022-12-18T07:08:29;23.67;;;11.37;;
17347;SDS011;8791;50.876;4.342;2022-12-18T07:10:56;25.07;;;10.93;;
17347;SDS011;8791;50.876;4.342;2022-12-18T07:13:23;19.33;;;10.33;;
17347;SDS011;8791;50.876;4.342;2022-12-18T07:15:50;19.87;;;10.07;;
17347;SDS011;8791;50.876;4.342;2022-12-18T07:18:17;21.90;;;10.40;;
17347;SDS011;8791;50.876;4.342;2022-12-18T07:20:44;26.63;;;10.43;;
17347;SDS011;8791;50.876;4.342;2022-12-18T07:23:11;21.73;;;9.60;;
17347;SDS011;8791;50.876;4.342;2022-12-18T07:25:39;24.87;;;10.40;;
17347;SDS011;8791;50.876;4.342;2022-12-18T07:28:06;16.43;;;9.47;;
17347;SDS011;8791;50.876;4.342;2022-12-18T07:30:33;25.67;;;10.07;;
17347;SDS011;8791;50.876;4.342;2022-12-18T07:33:02;19.57;;;10.07;;
17347;SDS011;8791;50.876;4.342;2022-12-18T07:35:29;18.50;;;9.67;;
17347;SDS011;8791;50.876;4.342;2022-12-18T07:37:56;19.00;;;9.43;;
17347;SDS011;8791;50.876;4.342;2022-12-18T07:40:22;25.37;;;10.80;;
17347;SDS011;8791;50.876;4.342;2022-12-18T07:42:51;18.30;;;9.73;;
17347;SDS011;8791;50.876;4.342;2022-12-18T07:45:17;22.27;;;8.90;;
17347;SDS011;8791;50.876;4.342;2022-12-18T07:47:44;20.37;;;9.47;;
17347;SDS011;8791;50.876;4.342;2022-12-18T07:50:11;19.90;;;9.43;;
17347;SDS011;8791;50.876;4.342;2022-12-18T07:52:38;17.53;;;9.43;;
17347;SDS011;8791;50.876;4.342;2022-12-18T07:55:05;16.63;;;9.03;;
17347;SDS011;8791;50.876;4.342;2022-12-18T07:57:32;17.73;;;9.43;;
17347;SDS011;8791;50.876;4.342;2022-12-18T08:00:00;18.30;;;8.77;;
17347;SDS011;8791;50.876;4.342;2022-12-18T08:02:29;18.93;;;8.83;;
17347;SDS011;8791;50.876;4.342;2022-12-18T08:04:56;15.90;;;9.47;;
17347;SDS011;8791;50.876;4.342;2022-12-18T08:07:24;21.63;;;8.87;;
17347;SDS011;8791;50.876;4.342;2022-12-18T08:09:50;21.57;;;9.30;;
17347;SDS011;8791;50.876;4.342;2022-12-18T08:12:17;20.87;;;9.47;;
17347;SDS011;8791;50.876;4.342;2022-12-18T08:14:44;17.60;;;9.37;;
17347;SDS011;8791;50.876;4.342;2022-12-18T08:17:12;16.57;;;9.23;;
17347;SDS011;8791;50.876;4.342;2022-12-18T08:19:39;20.03;;;10.13;;
17347;SDS011;8791;50.876;4.342;2022-12-18T08:22:06;23.30;;;12.33;;
17347;SDS011;8791;50.876;4.342;2022-12-18T08:24:32;22.10;;;10.07;;
17347;SDS011;8791;50.876;4.342;2022-12-18T08:26:59;28.27;;;11.03;;
17347;SDS011;8791;50.876;4.342;2022-12-18T08:29:26;24.73;;;10.57;;
17347;SDS011;8791;50.876;4.342;2022-12-18T08:31:53;22.33;;;9.63;;
17347;SDS011;8791;50.876;4.342;2022-12-18T08:34:21;22.87;;;10.10;;
17347;SDS011;8791;50.876;4.342;2022-12-18T08:36:48;24.53;;;10.47;;
17347;SDS011;8791;50.876;4.342;2022-12-18T08:39:15;23.73;;;10.23;;
17347;SDS011;8791;50.876;4.342;2022-12-18T08:41:41;14.77;;;8.13;;
17347;SDS011;8791;50.876;4.342;2022-12-18T08:44:28;16.43;;;8.63;;
17347;SDS011;8791;50.876;4.342;2022-12-18T08:47:03;22.07;;;9.33;;
17347;SDS011;8791;50.876;4.342;2022-12-18T08:49:31;19.40;;;10.30;;
17347;SDS011;8791;50.876;4.342;2022-12-18T08:51:58;16.37;;;9.33;;
17347;SDS011;8791;50.876;4.342;2022-12-18T08:54:25;17.50;;;8.63;;
17347;SDS011;8791;50.876;4.342;2022-12-18T08:56:53;17.97;;;8.63;;
17347;SDS011;8791;50.876;4.342;2022-12-18T08:59:19;17.10;;;9.37;;
17347;SDS011;8791;50.876;4.342;2022-12-18T09:01:46;17.10;;;8.57;;
17347;SDS011;8791;50.876;4.342;2022-12-18T09:04:13;24.90;;;9.87;;
17347;SDS011;8791;50.876;4.342;2022-12-18T09:06:41;22.47;;;9.67;;
17347;SDS011;8791;50.876;4.342;2022-12-18T09:09:09;17.60;;;8.37;;
17347;SDS011;8791;50.876;4.342;2022-12-18T09:11:36;15.67;;;8.37;;
17347;SDS011;8791;50.876;4.342;2022-12-18T09:14:03;17.70;;;8.77;;
17347;SDS011;8791;50.876;4.342;2022-12-18T09:16:30;21.43;;;8.87;;
17347;SDS011;8791;50.876;4.342;2022-12-18T09:19:00;14.77;;;8.07;;
17347;SDS011;8791;50.876;4.342;2022-12-18T09:21:29;13.47;;;8.03;;
17347;SDS011;8791;50.876;4.342;2022-12-18T09:23:59;12.70;;;7.50;;
17347;SDS011;8791;50.876;4.342;2022-12-18T09:26:26;17.03;;;7.80;;
17347;SDS011;8791;50.876;4.342;2022-12-18T09:28:53;15.53;;;7.50;;
17347;SDS011;8791;50.876;4.342;2022-12-18T09:31:22;13.70;;;7.27;;
17347;SDS011;8791;50.876;4.342;2022-12-18T09:33:49;13.90;;;7.57;;
17347;SDS011;8791;50.876;4.342;2022-12-18T09:36:16;14.80;;;7.23;;
17347;SDS011;8791;50.876;4.342;2022-12-18T09:38:44;13.23;;;8.70;;
17347;SDS011;8791;50.876;4.342;2022-12-18T09:41:17;14.23;;;7.13;;
17347;SDS011;8791;50.876;4.342;2022-12-18T09:43:58;11.60;;;7.03;;
17347;SDS011;8791;50.876;4.342;2022-12-18T09:46:29;14.43;;;8.43;;
17347;SDS011;8791;50.876;4.342;2022-12-18T09:48:59;15.13;;;8.50;;
17347;SDS011;8791;50.876;4.342;2022-12-18T09:51:31;13.00;;;8.07;;
17347;SDS011;8791;50.876;4.342;2022-12-18T09:54:01;13.47;;;8.33;;
17347;SDS011;8791;50.876;4.342;2022-12-18T09:56:35;15.30;;;8.30;;
17347;SDS011;8791;50.876;4.342;2022-12-18T09:59:05;15.77;;;8.37;;
17347;SDS011;8791;50.876;4.342;2022-12-18T10:01:32;14.90;;;8.20;;
17347;SDS011;8791;50.876;4.342;2022-12-18T10:03:59;13.07;;;7.87;;
17347;SDS011;8791;50.876;4.342;2022-12-18T10:06:27;18.03;;;9.17;;
17347;SDS011;8791;50.876;4.342;2022-12-18T10:09:01;14.27;;;8.23;;
17347;SDS011;8791;50.876;4.342;2022-12-18T10:11:39;27.73;;;9.40;;
17347;SDS011;8791;50.876;4.342;2022-12-18T10:14:14;14.90;;;7.80;;
17347;SDS011;8791;50.876;4.342;2022-12-18T10:16:51;14.27;;;8.73;;
17347;SDS011;8791;50.876;4.342;2022-12-18T10:19:30;17.60;;;9.27;;
17347;SDS011;8791;50.876;4.342;2022-12-18T10:22:07;20.53;;;8.60;;
17347;SDS011;8791;50.876;4.342;2022-12-18T10:24:49;16.77;;;8.50;;
17347;SDS011;8791;50.876;4.342;2022-12-18T10:27:23;15.37;;;9.00;;
17347;SDS011;8791;50.876;4.342;2022-12-18T10:29:51;18.57;;;9.40;;
17347;SDS011;8791;50.876;4.342;2022-12-18T10:32:20;18.97;;;9.63;;
17347;SDS011;8791;50.876;4.342;2022-12-18T10:34:49;15.47;;;8.63;;
17347;SDS011;8791;50.876;4.342;2022-12-18T10:37:17;20.30;;;9.57;;
17347;SDS011;8791;50.876;4.342;2022-12-18T10:39:45;15.10;;;9.23;;
17347;SDS011;8791;50.876;4.342;2022-12-18T10:42:16;17.03;;;10.07;;
17347;SDS011;8791;50.876;4.342;2022-12-18T10:44:45;22.17;;;9.43;;
17347;SDS011;8791;50.876;4.342;2022-12-18T10:47:26;15.23;;;8.87;;
17347;SDS011;8791;50.876;4.342;2022-12-18T10:49:53;12.93;;;8.70;;
17347;SDS011;8791;50.876;4.342;2022-12-18T10:52:21;16.17;;;8.93;;
17347;SDS011;8791;50.876;4.342;2022-12-18T10:54:51;21.60;;;10.93;;
17347;SDS011;8791;50.876;4.342;2022-12-18T10:57:32;20.70;;;9.37;;
17347;SDS011;8791;50.876;4.342;2022-12-18T11:00:18;15.87;;;10.03;;
17347;SDS011;8791;50.876;4.342;2022-12-18T11:02:48;20.57;;;11.17;;
17347;SDS011;8791;50.876;4.342;2022-12-18T11:05:26;19.10;;;11.13;;
17347;SDS011;8791;50.876;4.342;2022-12-18T11:07:56;28.03;;;14.10;;
17347;SDS011;8791;50.876;4.342;2022-12-18T11:10:26;21.47;;;12.80;;
17347;SDS011;8791;50.876;4.342;2022-12-18T11:12:57;26.60;;;13.53;;
17347;SDS011;8791;50.876;4.342;2022-12-18T11:15:39;26.83;;;13.07;;
17347;SDS011;8791;50.876;4.342;2022-12-18T11:18:14;24.03;;;12.20;;
17347;SDS011;8791;50.876;4.342;2022-12-18T11:20:43;21.47;;;12.23;;
17347;SDS011;8791;50.876;4.342;2022-12-18T11:23:17;25.33;;;12.50;;
17347;SDS011;8791;50.876;4.342;2022-12-18T11:25:50;26.33;;;11.23;;
17347;SDS011;8791;50.876;4.342;2022-12-18T11:28:27;16.20;;;9.63;;
17347;SDS011;8791;50.876;4.342;2022-12-18T11:34:02;23.90;;;10.83;;
17347;SDS011;8791;50.876;4.342;2022-12-18T11:36:33;18.77;;;10.10;;
17347;SDS011;8791;50.876;4.342;2022-12-18T11:39:07;20.27;;;10.90;;
17347;SDS011;8791;50.876;4.342;2022-12-18T11:41:41;20.63;;;10.73;;
17347;SDS011;8791;50.876;4.342;2022-12-18T11:44:34;22.47;;;11.97;;
17347;SDS011;8791;50.876;4.342;2022-12-18T11:47:09;28.83;;;13.00;;
17347;SDS011;8791;50.876;4.342;2022-12-18T11:49:41;27.43;;;13.20;;
17347;SDS011;8791;50.876;4.342;2022-12-18T11:52:09;30.57;;;13.40;;
17347;SDS011;8791;50.876;4.342;2022-12-18T11:54:42;26.30;;;11.50;;
17347;SDS011;8791;50.876;4.342;2022-12-18T11:57:19;26.63;;;12.57;;
17347;SDS011;8791;50.876;4.342;2022-12-18T12:00:01;23.73;;;11.77;;
17347;SDS011;8791;50.876;4.342;2022-12-18T12:02:38;24.53;;;12.07;;
17347;SDS011;8791;50.876;4.342;2022-12-18T12:05:19;26.13;;;11.60;;
17347;SDS011;8791;50.876;4.342;2022-12-18T12:07:59;23.73;;;11.00;;
17347;SDS011;8791;50.876;4.342;2022-12-18T12:10:34;24.47;;;12.23;;
17347;SDS011;8791;50.876;4.342;2022-12-18T12:13:13;22.27;;;10.03;;
17347;SDS011;8791;50.876;4.342;2022-12-18T12:15:52;19.93;;;11.27;;
17347;SDS011;8791;50.876;4.342;2022-12-18T12:18:32;23.27;;;11.87;;
17347;SDS011;8791;50.876;4.342;2022-12-18T12:21:09;21.63;;;10.67;;
17347;SDS011;8791;50.876;4.342;2022-12-18T12:23:44;26.63;;;11.23;;
17347;SDS011;8791;50.876;4.342;2022-12-18T12:26:18;22.53;;;10.53;;
17347;SDS011;8791;50.876;4.342;2022-12-18T12:28:57;23.57;;;11.63;;
17347;SDS011;8791;50.876;4.342;2022-12-18T12:31:33;20.20;;;10.27;;
17347;SDS011;8791;50.876;4.342;2022-12-18T12:34:16;22.27;;;11.67;;
17347;SDS011;8791;50.876;4.342;2022-12-18T12:36:52;19.73;;;11.00;;
17347;SDS011;8791;50.876;4.342;2022-12-18T12:39:26;50.40;;;24.60;;
17347;SDS011;8791;50.876;4.342;2022-12-18T12:41:56;73.80;;;40.20;;
17347;SDS011;8791;50.876;4.342;2022-12-18T12:44:56;19.77;;;10.77;;
17347;SDS011;8791;50.876;4.342;2022-12-18T12:47:27;22.80;;;11.93;;
17347;SDS011;8791;50.876;4.342;2022-12-18T12:50:00;24.47;;;11.43;;
17347;SDS011;8791;50.876;4.342;2022-12-18T12:52:31;23.17;;;11.17;;
17347;SDS011;8791;50.876;4.342;2022-12-18T12:55:02;24.97;;;11.70;;
17347;SDS011;8791;50.876;4.342;2022-12-18T12:57:33;21.90;;;11.00;;
17347;SDS011;8791;50.876;4.342;2022-12-18T13:00:04;28.73;;;12.20;;
17347;SDS011;8791;50.876;4.342;2022-12-18T13:02:35;28.47;;;12.23;;
17347;SDS011;8791;50.876;4.342;2022-12-18T13:05:13;26.30;;;12.17;;
17347;SDS011;8791;50.876;4.342;2022-12-18T13:07:50;24.10;;;11.67;;
17347;SDS011;8791;50.876;4.342;2022-12-18T13:10:24;30.10;;;12.40;;
17347;SDS011;8791;50.876;4.342;2022-12-18T13:12:57;22.90;;;12.40;;
17347;SDS011;8791;50.876;4.342;2022-12-18T13:15:26;21.50;;;12.20;;
17347;SDS011;8791;50.876;4.342;2022-12-18T13:18:04;30.07;;;12.20;;
17347;SDS011;8791;50.876;4.342;2022-12-18T13:20:40;27.90;;;12.73;;
17347;SDS011;8791;50.876;4.342;2022-12-18T13:25:56;27.00;;;12.53;;
17347;SDS011;8791;50.876;4.342;2022-12-18T13:28:50;30.33;;;12.93;;
17347;SDS011;8791;50.876;4.342;2022-12-18T13:34:35;27.47;;;13.80;;
17347;SDS011;8791;50.876;4.342;2022-12-18T13:43:34;32.60;;;13.30;;
17347;SDS011;8791;50.876;4.342;2022-12-18T13:48:50;30.20;;;15.40;;
17347;SDS011;8791;50.876;4.342;2022-12-18T13:51:20;28.57;;;14.33;;
17347;SDS011;8791;50.876;4.342;2022-12-18T13:53:50;30.03;;;14.57;;
17347;SDS011;8791;50.876;4.342;2022-12-18T13:56:21;33.10;;;15.50;;
17347;SDS011;8791;50.876;4.342;2022-12-18T13:59:03;32.67;;;14.10;;
17347;SDS011;8791;50.876;4.342;2022-12-18T14:01:36;33.00;;;15.17;;
17347;SDS011;8791;50.876;4.342;2022-12-18T14:04:09;32.20;;;15.07;;
17347;SDS011;8791;50.876;4.342;2022-12-18T14:06:37;38.77;;;16.53;;
17347;SDS011;8791;50.876;4.342;2022-12-18T14:09:06;42.13;;;15.57;;
17347;SDS011;8791;50.876;4.342;2022-12-18T14:11:36;33.97;;;14.60;;
17347;SDS011;8791;50.876;4.342;2022-12-18T14:14:04;35.23;;;15.33;;
17347;SDS011;8791;50.876;4.342;2022-12-18T14:16:33;31.90;;;15.17;;
17347;SDS011;8791;50.876;4.342;2022-12-18T14:19:00;36.53;;;16.30;;
17347;SDS011;8791;50.876;4.342;2022-12-18T14:21:28;39.10;;;17.17;;
17347;SDS011;8791;50.876;4.342;2022-12-18T14:24:05;36.17;;;16.53;;
17347;SDS011;8791;50.876;4.342;2022-12-18T14:26:42;36.33;;;15.60;;
17347;SDS011;8791;50.876;4.342;2022-12-18T14:29:21;37.83;;;17.30;;
17347;SDS011;8791;50.876;4.342;2022-12-18T14:32:10;36.97;;;16.17;;
17347;SDS011;8791;50.876;4.342;2022-12-18T14:34:39;37.17;;;16.17;;
17347;SDS011;8791;50.876;4.342;2022-12-18T14:37:07;37.27;;;16.70;;
17347;SDS011;8791;50.876;4.342;2022-12-18T14:39:37;44.63;;;17.73;;
17347;SDS011;8791;50.876;4.342;2022-12-18T14:42:05;37.33;;;17.90;;
17347;SDS011;8791;50.876;4.342;2022-12-18T14:44:32;47.50;;;18.03;;
17347;SDS011;8791;50.876;4.342;2022-12-18T14:46:58;41.83;;;17.63;;
17347;SDS011;8791;50.876;4.342;2022-12-18T14:49:26;41.57;;;18.10;;
17347;SDS011;8791;50.876;4.342;2022-12-18T14:51:56;43.07;;;16.80;;
17347;SDS011;8791;50.876;4.342;2022-12-18T14:54:25;40.77;;;17.17;;
17347;SDS011;8791;50.876;4.342;2022-12-18T14:56:56;43.07;;;18.23;;
17347;SDS011;8791;50.876;4.342;2022-12-18T14:59:27;46.30;;;17.83;;
17347;SDS011;8791;50.876;4.342;2022-12-18T15:02:01;39.53;;;17.10;;
17347;SDS011;8791;50.876;4.342;2022-12-18T15:04:36;46.03;;;17.13;;
17347;SDS011;8791;50.876;4.342;2022-12-18T15:07:07;34.70;;;16.10;;
17347;SDS011;8791;50.876;4.342;2022-12-18T15:09:37;33.37;;;16.47;;
17347;SDS011;8791;50.876;4.342;2022-12-18T15:12:15;40.07;;;16.07;;
17347;SDS011;8791;50.876;4.342;2022-12-18T15:14:51;42.10;;;16.40;;